sensor_id;sensor_type;location;lat;lon;timestamp;pressure;altitude;pressure_sealevel;temperature;humidity
79415;BME280;68864;44.972;19.612;2023-09-18T00:01:12;100972.03;;;20.65;65.82
79415;BME280;68864;44.972;19.612;2023-09-18T00:03:41;100969.69;;;20.56;65.91
79415;BME280;68864;44.972;19.612;2023-09-18T00:06:08;100973.72;;;20.59;66.18
79415;BME280;68864;44.972;19.612;2023-09-18T00:08:38;100972.09;;;20.58;66.23
79415;BME280;68864;44.972;19.612;2023-09-18T00:11:05;100966.53;;;20.51;66.24
79415;BME280;68864;44.972;19.612;2023-09-18T00:13:33;100973.47;;;20.46;66.40
79415;BME280;68864;44.972;19.612;2023-09-18T00:16:00;100976.31;;;20.43;66.22
79415;BME280;68864;44.972;19.612;2023-09-18T00:18:29;100975.91;;;20.44;66.50
79415;BME280;68864;44.972;19.612;2023-09-18T00:20:57;100975.16;;;20.40;66.61
79415;BME280;68864;44.972;19.612;2023-09-18T00:23:24;100969.91;;;20.39;66.45
79415;BME280;68864;44.972;19.612;2023-09-18T00:25:51;100970.72;;;20.36;66.83
79415;BME280;68864;44.972;19.612;2023-09-18T00:28:18;100961.81;;;20.37;66.72
79415;BME280;68864;44.972;19.612;2023-09-18T00:30:47;100976.38;;;20.39;66.96
79415;BME280;68864;44.972;19.612;2023-09-18T00:33:15;100970.31;;;20.37;66.91
79415;BME280;68864;44.972;19.612;2023-09-18T00:35:45;100965.50;;;20.34;66.84
79415;BME280;68864;44.972;19.612;2023-09-18T00:38:13;100963.44;;;20.35;66.84
79415;BME280;68864;44.972;19.612;2023-09-18T00:40:40;100961.06;;;20.33;66.96
79415;BME280;68864;44.972;19.612;2023-09-18T00:43:07;100953.78;;;20.29;67.03
79415;BME280;68864;44.972;19.612;2023-09-18T00:45:39;100945.84;;;20.16;67.61
79415;BME280;68864;44.972;19.612;2023-09-18T00:48:06;100960.69;;;20.28;67.49
79415;BME280;68864;44.972;19.612;2023-09-18T00:50:33;100944.88;;;20.34;66.87
79415;BME280;68864;44.972;19.612;2023-09-18T00:53:01;100950.53;;;20.30;66.99
79415;BME280;68864;44.972;19.612;2023-09-18T00:55:30;100952.97;;;20.28;67.35
79415;BME280;68864;44.972;19.612;2023-09-18T00:57:57;100939.25;;;20.27;67.12
79415;BME280;68864;44.972;19.612;2023-09-18T01:00:24;100942.91;;;20.27;66.94
79415;BME280;68864;44.972;19.612;2023-09-18T01:02:51;100961.66;;;20.14;67.68
79415;BME280;68864;44.972;19.612;2023-09-18T01:05:18;100945.09;;;20.09;67.23
79415;BME280;68864;44.972;19.612;2023-09-18T01:07:45;100937.38;;;20.13;67.13
79415;BME280;68864;44.972;19.612;2023-09-18T01:10:13;100944.59;;;20.17;67.24
79415;BME280;68864;44.972;19.612;2023-09-18T01:12:47;100961.53;;;20.24;67.42
79415;BME280;68864;44.972;19.612;2023-09-18T01:15:20;100968.47;;;20.20;67.36
79415;BME280;68864;44.972;19.612;2023-09-18T01:17:49;100969.28;;;20.17;67.98
79415;BME280;68864;44.972;19.612;2023-09-18T01:20:16;100965.97;;;20.22;67.52
79415;BME280;68864;44.972;19.612;2023-09-18T01:22:44;100945.09;;;20.09;67.61
79415;BME280;68864;44.972;19.612;2023-09-18T01:27:37;100959.56;;;20.18;67.71
79415;BME280;68864;44.972;19.612;2023-09-18T01:30:05;100944.28;;;20.12;67.37
79415;BME280;68864;44.972;19.612;2023-09-18T01:32:32;100958.72;;;20.21;67.34
79415;BME280;68864;44.972;19.612;2023-09-18T01:35:02;100956.31;;;20.19;67.79
79415;BME280;68864;44.972;19.612;2023-09-18T01:37:31;100941.03;;;20.10;67.41
79415;BME280;68864;44.972;19.612;2023-09-18T01:40:02;100936.31;;;20.00;68.11
79415;BME280;68864;44.972;19.612;2023-09-18T01:42:32;100958.75;;;20.17;67.63
79415;BME280;68864;44.972;19.612;2023-09-18T01:44:59;100948.25;;;20.14;68.18
79415;BME280;68864;44.972;19.612;2023-09-18T01:47:26;100955.13;;;20.17;68.07
79415;BME280;68864;44.972;19.612;2023-09-18T01:49:53;100932.69;;;19.99;67.85
79415;BME280;68864;44.972;19.612;2023-09-18T01:52:20;100956.84;;;20.07;68.38
79415;BME280;68864;44.972;19.612;2023-09-18T01:54:47;100935.53;;;19.96;68.83
79415;BME280;68864;44.972;19.612;2023-09-18T01:57:15;100951.63;;;20.02;68.46
79415;BME280;68864;44.972;19.612;2023-09-18T01:59:42;100949.25;;;20.01;68.57
79415;BME280;68864;44.972;19.612;2023-09-18T02:02:10;100942.38;;;19.98;68.63
79415;BME280;68864;44.972;19.612;2023-09-18T02:04:37;100951.75;;;19.88;69.44
79415;BME280;68864;44.972;19.612;2023-09-18T02:07:05;100950.06;;;19.98;68.63
79415;BME280;68864;44.972;19.612;2023-09-18T02:09:32;100956.13;;;20.00;68.96
79415;BME280;68864;44.972;19.612;2023-09-18T02:11:59;100960.56;;;20.01;68.78
79415;BME280;68864;44.972;19.612;2023-09-18T02:14:27;100944.47;;;19.94;68.38
79415;BME280;68864;44.972;19.612;2023-09-18T02:16:56;100959.69;;;20.07;68.56
79415;BME280;68864;44.972;19.612;2023-09-18T02:19:22;100960.84;;;20.13;68.52
79415;BME280;68864;44.972;19.612;2023-09-18T02:21:49;100961.66;;;20.14;68.48
79415;BME280;68864;44.972;19.612;2023-09-18T02:26:42;100956.47;;;20.05;68.37
79415;BME280;68864;44.972;19.612;2023-09-18T02:29:10;100958.88;;;20.07;68.70
79415;BME280;68864;44.972;19.612;2023-09-18T02:31:40;100958.50;;;20.05;68.51
79415;BME280;68864;44.972;19.612;2023-09-18T02:34:07;100963.75;;;20.03;68.46
79415;BME280;68864;44.972;19.612;2023-09-18T02:36:34;100960.16;;;19.99;68.97
79415;BME280;68864;44.972;19.612;2023-09-18T02:39:01;100966.28;;;19.94;68.96
79415;BME280;68864;44.972;19.612;2023-09-18T02:41:28;100953.44;;;19.82;68.94
79415;BME280;68864;44.972;19.612;2023-09-18T02:43:54;100965.59;;;19.79;69.95
79415;BME280;68864;44.972;19.612;2023-09-18T02:46:21;100961.50;;;19.83;69.40
79415;BME280;68864;44.972;19.612;2023-09-18T02:48:49;100958.69;;;19.83;69.15
79415;BME280;68864;44.972;19.612;2023-09-18T02:51:16;100967.22;;;19.80;69.21
79415;BME280;68864;44.972;19.612;2023-09-18T02:53:43;100972.03;;;19.83;69.28
79415;BME280;68864;44.972;19.612;2023-09-18T02:56:10;100972.06;;;19.79;69.64
79415;BME280;68864;44.972;19.612;2023-09-18T02:58:36;100971.66;;;19.77;69.59
79415;BME280;68864;44.972;19.612;2023-09-18T03:01:03;100956.75;;;19.73;69.47
79415;BME280;68864;44.972;19.612;2023-09-18T03:03:30;100961.91;;;19.82;69.28
79415;BME280;68864;44.972;19.612;2023-09-18T03:06:02;100958.38;;;19.74;70.07
79415;BME280;68864;44.972;19.612;2023-09-18T03:08:29;100960.00;;;19.72;69.83
79415;BME280;68864;44.972;19.612;2023-09-18T03:10:57;100944.69;;;19.66;69.85
79415;BME280;68864;44.972;19.612;2023-09-18T03:13:27;100964.81;;;19.75;70.04
79415;BME280;68864;44.972;19.612;2023-09-18T03:15:54;100960.81;;;19.72;69.96
79415;BME280;68864;44.972;19.612;2023-09-18T03:18:21;100957.56;;;19.74;69.94
79415;BME280;68864;44.972;19.612;2023-09-18T03:20:48;100960.94;;;19.55;71.00
79415;BME280;68864;44.972;19.612;2023-09-18T03:23:16;100968.13;;;19.66;70.05
79415;BME280;68864;44.972;19.612;2023-09-18T03:25:43;100966.09;;;19.67;70.16
79415;BME280;68864;44.972;19.612;2023-09-18T03:28:10;100950.75;;;19.64;70.32
79415;BME280;68864;44.972;19.612;2023-09-18T03:30:36;100960.00;;;19.68;70.58
79415;BME280;68864;44.972;19.612;2023-09-18T03:33:03;100964.50;;;19.66;70.34
79415;BME280;68864;44.972;19.612;2023-09-18T03:35:31;100960.16;;;19.54;71.26
79415;BME280;68864;44.972;19.612;2023-09-18T03:37:57;100962.13;;;19.61;70.27
79415;BME280;68864;44.972;19.612;2023-09-18T03:40:26;100956.03;;;19.62;70.22
79415;BME280;68864;44.972;19.612;2023-09-18T03:42:52;100950.81;;;19.61;70.16
79415;BME280;68864;44.972;19.612;2023-09-18T03:45:19;100954.06;;;19.56;70.54
79415;BME280;68864;44.972;19.612;2023-09-18T03:47:46;100945.28;;;19.39;71.54
79415;BME280;68864;44.972;19.612;2023-09-18T03:50:15;100938.38;;;19.44;70.75
79415;BME280;68864;44.972;19.612;2023-09-18T03:52:42;100934.84;;;19.29;72.22
79415;BME280;68864;44.972;19.612;2023-09-18T03:55:09;100925.91;;;19.38;71.04
79415;BME280;68864;44.972;19.612;2023-09-18T03:57:37;100932.84;;;19.26;72.12
79415;BME280;68864;44.972;19.612;2023-09-18T04:00:05;100922.31;;;19.34;71.22
79415;BME280;68864;44.972;19.612;2023-09-18T04:02:32;100927.91;;;19.37;71.34
79415;BME280;68864;44.972;19.612;2023-09-18T04:04:59;100912.97;;;19.37;71.40
79415;BME280;68864;44.972;19.612;2023-09-18T04:07:26;100917.47;;;19.34;71.27
79415;BME280;68864;44.972;19.612;2023-09-18T04:09:53;100904.19;;;19.28;71.59
79415;BME280;68864;44.972;19.612;2023-09-18T04:12:20;100912.53;;;19.42;71.41
79415;BME280;68864;44.972;19.612;2023-09-18T04:14:48;100906.88;;;19.42;71.41
79415;BME280;68864;44.972;19.612;2023-09-18T04:17:15;100913.78;;;19.41;71.52
79415;BME280;68864;44.972;19.612;2023-09-18T04:19:42;100910.13;;;19.40;70.95
79415;BME280;68864;44.972;19.612;2023-09-18T04:22:09;100879.50;;;19.32;71.48
79415;BME280;68864;44.972;19.612;2023-09-18T04:24:36;100905.28;;;19.41;71.48
79415;BME280;68864;44.972;19.612;2023-09-18T04:27:03;100904.03;;;19.42;71.50
79415;BME280;68864;44.972;19.612;2023-09-18T04:29:30;100904.91;;;19.39;71.73
79415;BME280;68864;44.972;19.612;2023-09-18T04:31:58;100897.97;;;19.43;71.51
79415;BME280;68864;44.972;19.612;2023-09-18T04:34:25;100900.47;;;19.38;72.17
79415;BME280;68864;44.972;19.612;2023-09-18T04:36:51;100894.44;;;19.32;71.84
79415;BME280;68864;44.972;19.612;2023-09-18T04:39:18;100906.50;;;19.40;71.88
79415;BME280;68864;44.972;19.612;2023-09-18T04:41:46;100915.34;;;19.42;71.99
79415;BME280;68864;44.972;19.612;2023-09-18T04:44:13;100912.97;;;19.40;71.80
79415;BME280;68864;44.972;19.612;2023-09-18T04:46:40;100913.38;;;19.39;72.32
79415;BME280;68864;44.972;19.612;2023-09-18T04:49:09;100904.94;;;19.32;72.21
79415;BME280;68864;44.972;19.612;2023-09-18T04:51:37;100919.00;;;19.42;72.09
79415;BME280;68864;44.972;19.612;2023-09-18T04:54:04;100926.72;;;19.35;72.80
79415;BME280;68864;44.972;19.612;2023-09-18T04:56:31;100923.81;;;19.49;71.80
79415;BME280;68864;44.972;19.612;2023-09-18T04:58:57;100908.06;;;19.52;72.00
79415;BME280;68864;44.972;19.612;2023-09-18T05:01:24;100914.50;;;19.52;71.73
79415;BME280;68864;44.972;19.612;2023-09-18T05:03:52;100897.97;;;19.43;71.76
79415;BME280;68864;44.972;19.612;2023-09-18T05:06:20;100900.81;;;19.47;71.60
79415;BME280;68864;44.972;19.612;2023-09-18T05:08:47;100921.28;;;19.62;71.69
79415;BME280;68864;44.972;19.612;2023-09-18T05:11:14;100925.72;;;19.66;71.47
79415;BME280;68864;44.972;19.612;2023-09-18T05:13:42;100925.66;;;19.70;71.53
79415;BME280;68864;44.972;19.612;2023-09-18T05:16:08;100931.31;;;19.73;71.32
79415;BME280;68864;44.972;19.612;2023-09-18T05:18:35;100911.91;;;19.72;71.13
79415;BME280;68864;44.972;19.612;2023-09-18T05:21:03;100907.41;;;19.78;71.04
79415;BME280;68864;44.972;19.612;2023-09-18T05:23:32;100929.50;;;19.94;70.98
79415;BME280;68864;44.972;19.612;2023-09-18T05:25:59;100926.94;;;20.06;70.84
79415;BME280;68864;44.972;19.612;2023-09-18T05:28:26;100933.41;;;20.07;71.45
79415;BME280;68864;44.972;19.612;2023-09-18T05:30:53;100943.72;;;20.24;70.31
79415;BME280;68864;44.972;19.612;2023-09-18T05:33:20;100943.22;;;20.36;69.66
79415;BME280;68864;44.972;19.612;2023-09-18T05:35:47;100930.19;;;20.46;69.68
79415;BME280;68864;44.972;19.612;2023-09-18T05:38:14;100930.75;;;20.64;69.11
79415;BME280;68864;44.972;19.612;2023-09-18T05:40:44;100943.44;;;20.86;68.79
79415;BME280;68864;44.972;19.612;2023-09-18T05:43:12;100946.00;;;21.04;68.52
79415;BME280;68864;44.972;19.612;2023-09-18T05:45:38;100940.91;;;21.22;67.50
79415;BME280;68864;44.972;19.612;2023-09-18T05:48:06;100933.72;;;21.41;67.09
79415;BME280;68864;44.972;19.612;2023-09-18T05:50:34;100936.78;;;21.54;66.74
79415;BME280;68864;44.972;19.612;2023-09-18T05:53:01;100929.41;;;21.60;66.80
79415;BME280;68864;44.972;19.612;2023-09-18T05:55:29;100928.41;;;21.70;66.73
79415;BME280;68864;44.972;19.612;2023-09-18T05:57:57;100927.09;;;21.74;66.44
79415;BME280;68864;44.972;19.612;2023-09-18T06:00:24;100932.38;;;21.99;65.50
79415;BME280;68864;44.972;19.612;2023-09-18T06:02:51;100923.91;;;22.19;65.15
79415;BME280;68864;44.972;19.612;2023-09-18T06:05:17;100923.53;;;22.17;64.85
79415;BME280;68864;44.972;19.612;2023-09-18T06:07:47;100915.84;;;22.37;64.55
79415;BME280;68864;44.972;19.612;2023-09-18T06:10:13;100911.97;;;22.47;63.90
79415;BME280;68864;44.972;19.612;2023-09-18T06:12:40;100930.69;;;22.65;63.14
79415;BME280;68864;44.972;19.612;2023-09-18T06:15:10;100922.84;;;22.72;63.19
79415;BME280;68864;44.972;19.612;2023-09-18T06:17:37;100924.50;;;22.89;62.57
79415;BME280;68864;44.972;19.612;2023-09-18T06:20:05;100918.50;;;23.04;62.35
79415;BME280;68864;44.972;19.612;2023-09-18T06:22:35;100909.81;;;23.11;62.09
79415;BME280;68864;44.972;19.612;2023-09-18T06:25:03;100925.81;;;23.21;61.23
79415;BME280;68864;44.972;19.612;2023-09-18T06:27:30;100931.34;;;23.28;61.39
79415;BME280;68864;44.972;19.612;2023-09-18T06:29:57;100931.63;;;23.33;60.96
79415;BME280;68864;44.972;19.612;2023-09-18T06:32:25;100925.22;;;23.29;61.12
79415;BME280;68864;44.972;19.612;2023-09-18T06:34:52;100926.84;;;23.47;60.88
79415;BME280;68864;44.972;19.612;2023-09-18T06:37:19;100921.16;;;23.63;60.32
79415;BME280;68864;44.972;19.612;2023-09-18T06:39:46;100926.44;;;23.64;59.76
79415;BME280;68864;44.972;19.612;2023-09-18T06:42:13;100916.47;;;23.56;59.75
79415;BME280;68864;44.972;19.612;2023-09-18T06:44:40;100927.94;;;23.69;59.77
79415;BME280;68864;44.972;19.612;2023-09-18T06:47:06;100925.00;;;23.72;59.77
79415;BME280;68864;44.972;19.612;2023-09-18T06:49:35;100926.13;;;23.91;58.89
79415;BME280;68864;44.972;19.612;2023-09-18T06:52:02;100917.13;;;24.09;58.70
79415;BME280;68864;44.972;19.612;2023-09-18T06:54:30;100913.38;;;24.12;58.01
79415;BME280;68864;44.972;19.612;2023-09-18T06:56:57;100929.13;;;24.33;58.05
79415;BME280;68864;44.972;19.612;2023-09-18T06:59:23;100918.84;;;24.35;57.89
79415;BME280;68864;44.972;19.612;2023-09-18T07:01:50;100933.66;;;24.59;57.27
79415;BME280;68864;44.972;19.612;2023-09-18T07:04:17;100934.81;;;24.74;56.76
79415;BME280;68864;44.972;19.612;2023-09-18T07:06:45;100926.47;;;24.67;56.16
79415;BME280;68864;44.972;19.612;2023-09-18T07:09:12;100928.44;;;24.70;56.76
79415;BME280;68864;44.972;19.612;2023-09-18T07:11:39;100933.19;;;24.89;56.32
79415;BME280;68864;44.972;19.612;2023-09-18T07:14:06;100931.19;;;24.86;56.34
79415;BME280;68864;44.972;19.612;2023-09-18T07:16:33;100935.94;;;25.06;56.15
79415;BME280;68864;44.972;19.612;2023-09-18T07:19:00;100950.91;;;25.22;55.70
79415;BME280;68864;44.972;19.612;2023-09-18T07:21:30;100944.75;;;25.11;55.38
79415;BME280;68864;44.972;19.612;2023-09-18T07:23:58;100942.22;;;25.13;55.53
79415;BME280;68864;44.972;19.612;2023-09-18T07:26:24;100939.13;;;25.20;55.24
79415;BME280;68864;44.972;19.612;2023-09-18T07:28:51;100948.63;;;25.17;54.99
79415;BME280;68864;44.972;19.612;2023-09-18T07:31:18;100943.94;;;25.36;55.00
79415;BME280;68864;44.972;19.612;2023-09-18T07:33:44;100935.03;;;25.21;55.33
79415;BME280;68864;44.972;19.612;2023-09-18T07:36:12;100941.09;;;25.49;55.29
79415;BME280;68864;44.972;19.612;2023-09-18T07:38:40;100921.00;;;25.52;54.81
79415;BME280;68864;44.972;19.612;2023-09-18T07:41:09;100912.31;;;25.56;53.70
79415;BME280;68864;44.972;19.612;2023-09-18T07:43:37;100948.16;;;25.82;53.68
79415;BME280;68864;44.972;19.612;2023-09-18T07:46:04;100921.06;;;25.99;53.45
79415;BME280;68864;44.972;19.612;2023-09-18T07:48:31;100937.16;;;25.93;52.68
79415;BME280;68864;44.972;19.612;2023-09-18T07:50:57;100925.44;;;26.13;52.95
79415;BME280;68864;44.972;19.612;2023-09-18T07:53:24;100926.25;;;26.13;52.78
79415;BME280;68864;44.972;19.612;2023-09-18T07:55:55;100922.94;;;26.49;51.63
79415;BME280;68864;44.972;19.612;2023-09-18T07:58:24;100920.81;;;26.63;51.14
79415;BME280;68864;44.972;19.612;2023-09-18T08:00:53;100919.19;;;26.83;51.02
79415;BME280;68864;44.972;19.612;2023-09-18T08:03:20;100921.72;;;27.03;50.52
79415;BME280;68864;44.972;19.612;2023-09-18T08:05:49;100919.09;;;27.18;49.78
79415;BME280;68864;44.972;19.612;2023-09-18T08:08:16;100885.91;;;27.29;49.37
79415;BME280;68864;44.972;19.612;2023-09-18T08:10:43;100892.25;;;27.34;49.10
79415;BME280;68864;44.972;19.612;2023-09-18T08:13:10;100904.31;;;27.59;49.19
79415;BME280;68864;44.972;19.612;2023-09-18T08:15:38;100907.84;;;27.63;48.21
79415;BME280;68864;44.972;19.612;2023-09-18T08:18:05;100895.31;;;27.88;47.81
79415;BME280;68864;44.972;19.612;2023-09-18T08:20:32;100887.84;;;28.09;47.45
79415;BME280;68864;44.972;19.612;2023-09-18T08:23:01;100880.22;;;28.15;46.82
79415;BME280;68864;44.972;19.612;2023-09-18T08:25:28;100884.03;;;28.21;46.48
79415;BME280;68864;44.972;19.612;2023-09-18T08:27:56;100870.47;;;28.40;46.70
79415;BME280;68864;44.972;19.612;2023-09-18T08:30:23;100879.19;;;28.73;45.79
79415;BME280;68864;44.972;19.612;2023-09-18T08:32:51;100887.56;;;29.46;44.40
79415;BME280;68864;44.972;19.612;2023-09-18T08:35:18;100875.97;;;31.09;40.41
79415;BME280;68864;44.972;19.612;2023-09-18T08:37:45;100869.13;;;32.63;37.14
79415;BME280;68864;44.972;19.612;2023-09-18T08:40:13;100858.28;;;33.46;34.82
79415;BME280;68864;44.972;19.612;2023-09-18T08:42:44;100871.84;;;34.31;33.96
79415;BME280;68864;44.972;19.612;2023-09-18T08:45:15;100866.69;;;34.74;32.02
79415;BME280;68864;44.972;19.612;2023-09-18T08:47:46;100839.81;;;35.40;31.34
79415;BME280;68864;44.972;19.612;2023-09-18T08:50:15;100849.56;;;36.12;30.11
79415;BME280;68864;44.972;19.612;2023-09-18T08:52:43;100850.94;;;36.52;29.49
79415;BME280;68864;44.972;19.612;2023-09-18T08:55:10;100851.94;;;37.25;28.26
79415;BME280;68864;44.972;19.612;2023-09-18T08:57:39;100845.22;;;37.85;27.72
79415;BME280;68864;44.972;19.612;2023-09-18T09:00:09;100840.22;;;38.41;26.90
79415;BME280;68864;44.972;19.612;2023-09-18T09:02:42;100838.50;;;39.02;25.56
79415;BME280;68864;44.972;19.612;2023-09-18T09:05:08;100840.47;;;39.52;25.19
79415;BME280;68864;44.972;19.612;2023-09-18T09:07:37;100834.34;;;40.16;24.00
79415;BME280;68864;44.972;19.612;2023-09-18T09:10:04;100835.78;;;40.36;23.63
79415;BME280;68864;44.972;19.612;2023-09-18T09:12:47;100839.81;;;40.46;22.78
79415;BME280;68864;44.972;19.612;2023-09-18T09:15:15;100835.13;;;41.26;22.67
79415;BME280;68864;44.972;19.612;2023-09-18T09:17:42;100838.34;;;41.92;21.58
79415;BME280;68864;44.972;19.612;2023-09-18T09:20:10;100829.00;;;42.09;20.95
79415;BME280;68864;44.972;19.612;2023-09-18T09:22:39;100827.09;;;42.12;20.90
79415;BME280;68864;44.972;19.612;2023-09-18T09:25:22;100827.19;;;42.34;19.62
79415;BME280;68864;44.972;19.612;2023-09-18T09:27:49;100837.59;;;42.58;20.19
79415;BME280;68864;44.972;19.612;2023-09-18T09:30:19;100833.75;;;42.78;19.83
79415;BME280;68864;44.972;19.612;2023-09-18T09:32:48;100833.94;;;42.73;20.07
79415;BME280;68864;44.972;19.612;2023-09-18T09:35:22;100821.63;;;42.82;19.18
79415;BME280;68864;44.972;19.612;2023-09-18T09:37:52;100835.69;;;42.68;19.48
79415;BME280;68864;44.972;19.612;2023-09-18T09:40:21;100827.25;;;42.65;19.26
79415;BME280;68864;44.972;19.612;2023-09-18T09:42:51;100830.13;;;42.34;19.42
79415;BME280;68864;44.972;19.612;2023-09-18T09:45:19;100819.50;;;38.64;24.61
79415;BME280;68864;44.972;19.612;2023-09-18T09:47:46;100822.06;;;36.65;26.84
79415;BME280;68864;44.972;19.612;2023-09-18T09:50:14;100812.31;;;35.58;29.21
79415;BME280;68864;44.972;19.612;2023-09-18T09:52:46;100818.22;;;34.63;30.25
79415;BME280;68864;44.972;19.612;2023-09-18T09:55:26;100807.22;;;33.75;31.89
79415;BME280;68864;44.972;19.612;2023-09-18T09:57:54;100807.69;;;33.25;32.77
79415;BME280;68864;44.972;19.612;2023-09-18T10:00:25;100811.09;;;32.87;33.31
79415;BME280;68864;44.972;19.612;2023-09-18T10:02:58;100801.19;;;32.36;34.48
79415;BME280;68864;44.972;19.612;2023-09-18T10:05:29;100808.41;;;32.06;35.17
79415;BME280;68864;44.972;19.612;2023-09-18T10:08:02;100792.69;;;31.81;35.36
79415;BME280;68864;44.972;19.612;2023-09-18T10:10:33;100792.22;;;31.47;35.78
79415;BME280;68864;44.972;19.612;2023-09-18T10:13:08;100783.25;;;30.90;36.72
79415;BME280;68864;44.972;19.612;2023-09-18T10:15:38;100767.63;;;30.62;37.13
79415;BME280;68864;44.972;19.612;2023-09-18T10:18:07;100781.41;;;30.43;37.55
79415;BME280;68864;44.972;19.612;2023-09-18T10:20:40;100781.69;;;30.30;38.08
79415;BME280;68864;44.972;19.612;2023-09-18T10:23:21;100777.31;;;30.20;39.19
79415;BME280;68864;44.972;19.612;2023-09-18T10:25:54;100770.69;;;30.14;38.82
79415;BME280;68864;44.972;19.612;2023-09-18T10:28:23;100770.75;;;30.05;39.27
79415;BME280;68864;44.972;19.612;2023-09-18T10:30:52;100770.88;;;29.96;38.97
79415;BME280;68864;44.972;19.612;2023-09-18T10:33:21;100761.28;;;29.75;39.50
79415;BME280;68864;44.972;19.612;2023-09-18T10:35:48;100758.41;;;29.75;39.93
79415;BME280;68864;44.972;19.612;2023-09-18T10:38:16;100765.44;;;29.74;39.83
79415;BME280;68864;44.972;19.612;2023-09-18T10:40:43;100770.28;;;29.68;39.77
79415;BME280;68864;44.972;19.612;2023-09-18T10:43:11;100754.28;;;29.52;40.15
79415;BME280;68864;44.972;19.612;2023-09-18T10:45:42;100756.06;;;29.50;40.18
79415;BME280;68864;44.972;19.612;2023-09-18T10:48:12;100750.19;;;29.44;40.36
79415;BME280;68864;44.972;19.612;2023-09-18T10:50:41;100741.66;;;29.35;39.82
79415;BME280;68864;44.972;19.612;2023-09-18T10:53:09;100751.41;;;29.29;40.22
79415;BME280;68864;44.972;19.612;2023-09-18T10:55:35;100739.34;;;29.15;40.49
79415;BME280;68864;44.972;19.612;2023-09-18T10:58:03;100738.25;;;29.13;40.89
79415;BME280;68864;44.972;19.612;2023-09-18T11:00:32;100738.09;;;29.16;40.58
79415;BME280;68864;44.972;19.612;2023-09-18T11:03:13;100737.09;;;29.19;40.87
79415;BME280;68864;44.972;19.612;2023-09-18T11:05:44;100738.19;;;29.22;40.50
79415;BME280;68864;44.972;19.612;2023-09-18T11:08:26;100732.78;;;29.24;40.73
79415;BME280;68864;44.972;19.612;2023-09-18T11:10:58;100729.16;;;29.14;40.57
79415;BME280;68864;44.972;19.612;2023-09-18T11:13:36;100725.69;;;29.10;40.18
79415;BME280;68864;44.972;19.612;2023-09-18T11:16:15;100723.09;;;28.89;40.63
79415;BME280;68864;44.972;19.612;2023-09-18T11:18:42;100723.22;;;28.94;40.90
79415;BME280;68864;44.972;19.612;2023-09-18T11:21:10;100718.88;;;28.99;41.41
79415;BME280;68864;44.972;19.612;2023-09-18T11:23:39;100733.84;;;29.03;41.18
79415;BME280;68864;44.972;19.612;2023-09-18T11:26:08;100712.84;;;28.97;40.78
79415;BME280;68864;44.972;19.612;2023-09-18T11:28:37;100722.25;;;28.97;41.21
79415;BME280;68864;44.972;19.612;2023-09-18T11:31:05;100713.44;;;29.01;41.42
79415;BME280;68864;44.972;19.612;2023-09-18T11:33:34;100715.53;;;29.00;40.75
79415;BME280;68864;44.972;19.612;2023-09-18T11:36:07;100710.56;;;29.01;40.72
79415;BME280;68864;44.972;19.612;2023-09-18T11:38:51;100697.94;;;28.83;40.75
79415;BME280;68864;44.972;19.612;2023-09-18T11:41:23;100715.75;;;28.88;40.46
79415;BME280;68864;44.972;19.612;2023-09-18T11:43:51;100707.34;;;28.84;40.73
79415;BME280;68864;44.972;19.612;2023-09-18T11:46:20;100704.34;;;28.78;40.41
79415;BME280;68864;44.972;19.612;2023-09-18T11:48:48;100692.09;;;28.78;40.60
79415;BME280;68864;44.972;19.612;2023-09-18T11:51:23;100697.16;;;28.74;40.38
79415;BME280;68864;44.972;19.612;2023-09-18T11:53:53;100691.75;;;28.76;40.31
79415;BME280;68864;44.972;19.612;2023-09-18T11:56:21;100687.47;;;28.71;40.56
79415;BME280;68864;44.972;19.612;2023-09-18T11:58:49;100685.84;;;28.79;40.77
79415;BME280;68864;44.972;19.612;2023-09-18T12:01:18;100682.78;;;28.83;40.25
79415;BME280;68864;44.972;19.612;2023-09-18T12:03:46;100684.81;;;28.92;39.86
79415;BME280;68864;44.972;19.612;2023-09-18T12:06:19;100679.44;;;28.84;39.72
79415;BME280;68864;44.972;19.612;2023-09-18T12:08:46;100693.28;;;28.86;40.17
79415;BME280;68864;44.972;19.612;2023-09-18T12:11:16;100686.28;;;28.87;40.14
79415;BME280;68864;44.972;19.612;2023-09-18T12:13:45;100667.78;;;28.88;38.80
79415;BME280;68864;44.972;19.612;2023-09-18T12:16:12;100657.09;;;28.89;39.20
79415;BME280;68864;44.972;19.612;2023-09-18T12:18:46;100676.03;;;28.95;39.38
79415;BME280;68864;44.972;19.612;2023-09-18T12:21:14;100658.00;;;28.95;40.11
79415;BME280;68864;44.972;19.612;2023-09-18T12:23:45;100664.19;;;29.02;39.09
79415;BME280;68864;44.972;19.612;2023-09-18T12:26:13;100662.91;;;29.03;39.18
79415;BME280;68864;44.972;19.612;2023-09-18T12:28:41;100654.81;;;28.93;39.32
79415;BME280;68864;44.972;19.612;2023-09-18T12:31:10;100661.19;;;28.97;38.48
79415;BME280;68864;44.972;19.612;2023-09-18T12:33:38;100656.59;;;28.90;38.95
79415;BME280;68864;44.972;19.612;2023-09-18T12:36:07;100672.78;;;29.02;37.83
79415;BME280;68864;44.972;19.612;2023-09-18T12:38:35;100655.25;;;29.00;38.05
79415;BME280;68864;44.972;19.612;2023-09-18T12:41:03;100630.59;;;28.94;37.79
79415;BME280;68864;44.972;19.612;2023-09-18T12:43:34;100650.78;;;28.99;37.72
79415;BME280;68864;44.972;19.612;2023-09-18T12:46:02;100633.75;;;28.96;38.39
79415;BME280;68864;44.972;19.612;2023-09-18T12:48:30;100641.91;;;28.97;38.99
79415;BME280;68864;44.972;19.612;2023-09-18T12:51:02;100635.16;;;29.00;37.42